createdAt,value
2022-09-21T00:01:33.273Z,101673.81
2022-09-21T00:04:03.098Z,101683.44
2022-09-21T00:06:34.543Z,101682.63
2022-09-21T00:09:04.981Z,101682.97
2022-09-21T00:11:34.363Z,101684.28
2022-09-21T00:14:07.111Z,101681.63
2022-09-21T00:16:35.286Z,101681.09
2022-09-21T00:19:03.850Z,101679.00
2022-09-21T00:21:33.230Z,101676.63
2022-09-21T00:24:02.490Z,101677.72
2022-09-21T00:26:32.846Z,101677.06
2022-09-21T00:29:03.292Z,101684.44
2022-09-21T00:31:31.998Z,101683.09
2022-09-21T00:34:03.830Z,101697.59
2022-09-21T00:36:34.447Z,101700.38
2022-09-21T00:39:04.127Z,101700.84
2022-09-21T00:41:34.473Z,101702.47
2022-09-21T00:44:31.858Z,101707.19
2022-09-21T00:47:04.632Z,101711.47
2022-09-21T00:49:35.094Z,101705.56
2022-09-21T00:52:06.768Z,101708.06
2022-09-21T00:54:39.157Z,101721.16
2022-09-21T00:57:08.170Z,101725.50
2022-09-21T00:59:38.816Z,101714.22
2022-09-21T01:02:07.162Z,101724.16
2022-09-21T01:04:36.325Z,101727.41
2022-09-21T01:07:07.555Z,101732.03
2022-09-21T01:09:36.119Z,101733.47
2022-09-21T01:12:13.436Z,101729.75
2022-09-21T01:14:54.764Z,101730.09
2022-09-21T01:17:29.624Z,101734.03
2022-09-21T01:20:22.042Z,101734.13
2022-09-21T01:23:06.671Z,101737.16
2022-09-21T01:25:40.236Z,101739.41
2022-09-21T01:28:24.083Z,101746.72
2022-09-21T01:30:54.229Z,101748.53
2022-09-21T01:33:26.542Z,101745.38
2022-09-21T01:35:58.119Z,101747.44
2022-09-21T01:38:28.992Z,101747.38
2022-09-21T01:41:00.228Z,101747.94
2022-09-21T01:43:33.114Z,101756.72
2022-09-21T01:46:04.343Z,101748.72
2022-09-21T01:48:35.300Z,101749.69
2022-09-21T01:51:05.408Z,101750.38
2022-09-21T01:53:34.912Z,101744.66
2022-09-21T01:56:07.638Z,101744.66
2022-09-21T01:58:40.180Z,101750.53
2022-09-21T02:01:13.914Z,101750.81
2022-09-21T02:03:46.353Z,101748.00
2022-09-21T02:06:14.746Z,101755.69
2022-09-21T02:08:42.394Z,101748.00
2022-09-21T02:11:12.854Z,101751.03
2022-09-21T02:14:42.133Z,101755.22
2022-09-21T02:17:19.166Z,101750.25
2022-09-21T02:19:54.260Z,101753.41
2022-09-21T02:22:29.648Z,101751.28
2022-09-21T02:25:05.341Z,101749.31
2022-09-21T02:27:36.967Z,101752.09
2022-09-21T02:30:09.095Z,101749.22
2022-09-21T02:32:50.492Z,101747.25
2022-09-21T02:35:30.541Z,101744.88
2022-09-21T02:38:07.545Z,101746.19
2022-09-21T02:40:40.456Z,101748.84
2022-09-21T02:43:12.060Z,101747.16
2022-09-21T02:45:45.354Z,101745.78
2022-09-21T02:48:16.840Z,101745.59
2022-09-21T02:50:46.474Z,101749.25
2022-09-21T02:53:18.161Z,101755.94
2022-09-21T02:55:47.295Z,101752.59
2022-09-21T02:58:18.049Z,101750.34
2022-09-21T03:00:45.860Z,101757.00
2022-09-21T03:03:22.071Z,101757.06
2022-09-21T03:05:51.576Z,101752.16
2022-09-21T03:08:19.836Z,101756.81
2022-09-21T03:10:50.858Z,101757.81
2022-09-21T03:13:19.587Z,101752.91
2022-09-21T03:15:48.461Z,101754.31
2022-09-21T03:18:16.087Z,101757.91
2022-09-21T03:20:48.016Z,101759.38
2022-09-21T03:23:16.487Z,101759.19
2022-09-21T03:25:45.269Z,101761.84
2022-09-21T03:28:13.593Z,101755.22
2022-09-21T03:30:41.837Z,101756.28
2022-09-21T03:33:10.227Z,101761.94
2022-09-21T03:35:39.393Z,101765.00
2022-09-21T03:38:08.596Z,101767.31
2022-09-21T03:40:36.361Z,101769.09
2022-09-21T03:43:04.871Z,101764.13
2022-09-21T03:45:33.547Z,101769.91
2022-09-21T03:48:02.635Z,101770.75
2022-09-21T03:50:30.505Z,101766.16
2022-09-21T03:52:58.724Z,101760.56
2022-09-21T03:55:28.068Z,101764.53
2022-09-21T03:57:55.671Z,101766.41
2022-09-21T04:00:24.887Z,101774.00
2022-09-21T04:02:53.721Z,101761.09
2022-09-21T04:05:21.837Z,101768.25
2022-09-21T04:07:50.072Z,101763.69
2022-09-21T04:10:21.569Z,101770.13
2022-09-21T04:12:52.226Z,101769.66
2022-09-21T04:15:20.518Z,101764.56
2022-09-21T04:17:48.596Z,101771.56
2022-09-21T04:20:16.710Z,101772.81
2022-09-21T04:22:44.893Z,101769.56
2022-09-21T04:25:13.126Z,101777.44
2022-09-21T04:27:41.542Z,101778.81
2022-09-21T04:30:13.436Z,101774.81
2022-09-21T04:32:41.593Z,101770.88
2022-09-21T04:35:10.639Z,101774.13
2022-09-21T04:37:40.516Z,101776.97
2022-09-21T04:40:10.578Z,101772.66
2022-09-21T04:42:38.805Z,101772.53
2022-09-21T04:45:08.392Z,101770.56
2022-09-21T04:47:37.745Z,101775.28
2022-09-21T04:50:06.539Z,101765.75
2022-09-21T04:52:34.497Z,101771.81
2022-09-21T04:55:02.102Z,101773.38
2022-09-21T04:57:30.582Z,101769.09
2022-09-21T04:59:58.235Z,101776.66
2022-09-21T05:02:27.189Z,101780.50
2022-09-21T05:04:56.496Z,101769.38
2022-09-21T05:07:24.117Z,101774.25
2022-09-21T05:10:09.502Z,101775.06
2022-09-21T05:12:40.870Z,101777.69
2022-09-21T05:15:10.581Z,101788.06
2022-09-21T05:17:38.312Z,101778.00
2022-09-21T05:20:08.446Z,101784.63
2022-09-21T05:22:36.319Z,101790.78
2022-09-21T05:25:04.405Z,101796.09
2022-09-21T05:27:32.068Z,101794.59
2022-09-21T05:30:00.343Z,101795.81
2022-09-21T05:32:31.400Z,101803.56
2022-09-21T05:35:08.697Z,101799.03
2022-09-21T05:37:48.546Z,101809.44
2022-09-21T05:40:17.234Z,101805.59
2022-09-21T05:42:45.827Z,101804.81
2022-09-21T05:45:19.104Z,101811.03
2022-09-21T05:47:54.366Z,101805.97
2022-09-21T05:50:35.442Z,101803.06
2022-09-21T05:53:17.185Z,101800.66
2022-09-21T05:55:52.632Z,101805.41
2022-09-21T05:58:24.165Z,101804.81
2022-09-21T06:00:59.692Z,101801.16
2022-09-21T06:03:29.532Z,101792.50
2022-09-21T06:05:59.189Z,101798.06
2022-09-21T06:08:28.200Z,101791.00
2022-09-21T06:10:56.593Z,101791.25
2022-09-21T06:13:24.441Z,101799.34
2022-09-21T06:15:51.998Z,101798.22
2022-09-21T06:18:20.187Z,101798.13
2022-09-21T06:20:48.070Z,101797.16
2022-09-21T06:23:18.149Z,101800.72
2022-09-21T06:25:45.986Z,101797.28
2022-09-21T06:28:14.304Z,101800.25
2022-09-21T06:30:44.830Z,101801.50
2022-09-21T06:33:12.960Z,101797.81
2022-09-21T06:35:40.747Z,101795.16
2022-09-21T06:38:09.183Z,101796.22
2022-09-21T06:40:41.615Z,101798.63
2022-09-21T06:43:10.289Z,101796.34
2022-09-21T06:45:38.166Z,101789.75
2022-09-21T06:48:06.963Z,101786.84
2022-09-21T06:50:39.918Z,101788.84
2022-09-21T06:53:08.895Z,101791.78
2022-09-21T06:55:36.555Z,101788.09
2022-09-21T06:58:09.382Z,101783.00
2022-09-21T07:00:37.474Z,101786.69
2022-09-21T07:03:05.523Z,101790.69
2022-09-21T07:05:33.610Z,101777.56
2022-09-21T07:08:02.225Z,101785.06
2022-09-21T07:10:30.352Z,101787.75
2022-09-21T07:13:03.642Z,101792.19
2022-09-21T07:15:33.699Z,101787.22
2022-09-21T07:18:08.462Z,101784.88
2022-09-21T07:20:39.243Z,101789.25
2022-09-21T07:23:11.545Z,101790.25
2022-09-21T07:25:39.753Z,101789.59
2022-09-21T07:28:07.740Z,101790.56
2022-09-21T07:30:38.504Z,101789.56
2022-09-21T07:33:08.201Z,101792.72
2022-09-21T07:35:36.739Z,101801.22
2022-09-21T07:38:06.464Z,101789.56
2022-09-21T07:40:35.607Z,101787.22
2022-09-21T07:43:05.004Z,101790.84
2022-09-21T07:45:32.763Z,101791.88
2022-09-21T07:48:05.358Z,101785.50
2022-09-21T07:50:34.082Z,101780.16
2022-09-21T07:53:03.319Z,101785.09
2022-09-21T07:55:31.733Z,101785.34
2022-09-21T07:58:17.329Z,101786.75
2022-09-21T08:00:45.293Z,101785.50
2022-09-21T08:03:14.475Z,101788.81
2022-09-21T08:05:42.426Z,101782.78
2022-09-21T08:08:10.600Z,101789.97
2022-09-21T08:10:39.449Z,101781.97
2022-09-21T08:13:07.178Z,101795.72
2022-09-21T08:15:49.474Z,101798.63
2022-09-21T08:18:19.746Z,101807.94
2022-09-21T08:20:55.700Z,101817.16
2022-09-21T08:23:26.354Z,101814.22
2022-09-21T08:25:54.818Z,101816.75
2022-09-21T08:28:23.239Z,101821.59
2022-09-21T08:30:51.729Z,101824.97
2022-09-21T08:33:24.835Z,101824.19
2022-09-21T08:35:55.417Z,101817.56
2022-09-21T08:38:23.596Z,101819.06
2022-09-21T08:40:53.044Z,101823.19
2022-09-21T08:43:29.101Z,101814.75
2022-09-21T08:45:57.472Z,101825.41
2022-09-21T08:48:35.802Z,101814.19
2022-09-21T08:51:08.072Z,101822.22
2022-09-21T08:53:37.799Z,101818.78
2022-09-21T08:56:06.229Z,101817.94
2022-09-21T08:58:34.079Z,101815.91
2022-09-21T09:01:15.815Z,101813.16
2022-09-21T09:03:55.576Z,101820.91
2022-09-21T09:06:30.716Z,101818.16
2022-09-21T09:09:26.189Z,101814.41
2022-09-21T09:12:10.907Z,101818.56
2022-09-21T09:15:11.626Z,101818.94
2022-09-21T09:17:49.078Z,101818.19
2022-09-21T09:20:21.215Z,101818.78
2022-09-21T09:22:51.624Z,101821.91
2022-09-21T09:25:22.405Z,101822.66
2022-09-21T09:27:52.870Z,101824.72
2022-09-21T09:31:22.164Z,101823.22
2022-09-21T09:33:54.697Z,101824.34
2022-09-21T09:36:53.845Z,101825.47
2022-09-21T09:39:16.152Z,101825.28
2022-09-21T09:41:59.183Z,101826.84
2022-09-21T09:44:39.283Z,101827.19
2022-09-21T09:47:13.859Z,101822.66
2022-09-21T09:49:50.105Z,101819.09
2022-09-21T09:52:20.674Z,101823.22
2022-09-21T09:54:48.782Z,101829.50
2022-09-21T09:57:17.120Z,101820.34
2022-09-21T09:59:53.341Z,101824.66
2022-09-21T10:02:24.374Z,101833.38
2022-09-21T10:05:03.517Z,101821.97
2022-09-21T10:07:37.362Z,101825.94
2022-09-21T10:10:24.050Z,101819.28
2022-09-21T10:12:52.648Z,101822.16
2022-09-21T10:15:21.832Z,101820.53
2022-09-21T10:17:50.169Z,101815.31
2022-09-21T10:20:20.300Z,101819.69
2022-09-21T10:22:55.039Z,101817.19
2022-09-21T10:25:22.988Z,101816.78
2022-09-21T10:27:52.183Z,101824.88
2022-09-21T10:30:34.145Z,101817.19
2022-09-21T10:33:03.313Z,101815.50
2022-09-21T10:35:31.104Z,101801.28
2022-09-21T10:38:21.149Z,101820.66
2022-09-21T10:40:50.357Z,101803.91
2022-09-21T10:43:27.255Z,101818.38
2022-09-21T10:45:56.679Z,101809.59
2022-09-21T10:48:25.522Z,101808.25
2022-09-21T10:50:54.999Z,101822.84
2022-09-21T10:53:28.668Z,101819.91
2022-09-21T10:56:14.998Z,101808.41
2022-09-21T10:59:12.763Z,101812.03
2022-09-21T11:01:45.602Z,101815.69
2022-09-21T11:04:17.256Z,101809.06
2022-09-21T11:06:47.055Z,101813.97
2022-09-21T11:09:18.433Z,101804.19
2022-09-21T11:11:53.292Z,101804.66
2022-09-21T11:14:30.845Z,101810.69
2022-09-21T11:17:01.771Z,101784.91
2022-09-21T11:19:34.871Z,101786.88
2022-09-21T11:22:08.756Z,101812.03
2022-09-21T11:24:47.298Z,101793.03
2022-09-21T11:27:16.700Z,101806.97
2022-09-21T11:29:51.534Z,101803.97
2022-09-21T11:32:37.828Z,101798.16
2022-09-21T11:35:20.078Z,101788.19
2022-09-21T11:38:06.340Z,101798.88
2022-09-21T11:40:45.475Z,101801.72
2022-09-21T11:43:24.155Z,101796.06
2022-09-21T11:45:59.472Z,101796.44
2022-09-21T11:48:38.571Z,101788.41
2022-09-21T11:52:08.551Z,101789.06
2022-09-21T11:54:58.678Z,101780.50
2022-09-21T11:57:29.452Z,101788.06
2022-09-21T12:00:15.615Z,101783.91
2022-09-21T12:03:25.931Z,101784.56
2022-09-21T12:06:05.335Z,101779.03
2022-09-21T12:08:46.386Z,101773.59
2022-09-21T12:11:21.203Z,101769.31
2022-09-21T12:14:00.087Z,101759.66
2022-09-21T12:16:34.283Z,101770.78
2022-09-21T12:19:13.591Z,101774.00
2022-09-21T12:21:45.606Z,101764.13
2022-09-21T12:24:16.516Z,101751.41
2022-09-21T12:26:47.344Z,101759.84
2022-09-21T12:29:25.478Z,101765.19
2022-09-21T12:32:00.807Z,101757.63
2022-09-21T12:34:31.991Z,101751.06
2022-09-21T12:37:06.637Z,101742.00
2022-09-21T12:39:40.438Z,101750.16
2022-09-21T12:42:27.078Z,101738.69
2022-09-21T12:45:59.535Z,101752.81
2022-09-21T12:48:34.491Z,101742.38
2022-09-21T12:51:06.424Z,101749.59
2022-09-21T12:53:37.729Z,101755.06
2022-09-21T12:56:10.195Z,101740.19
2022-09-21T12:58:55.349Z,101743.13
2022-09-21T13:01:30.991Z,101744.84
2022-09-21T13:04:14.138Z,101736.78
2022-09-21T13:06:58.602Z,101726.66
2022-09-21T13:09:27.100Z,101730.47
2022-09-21T13:11:57.779Z,101736.13
2022-09-21T13:14:26.769Z,101716.97
2022-09-21T13:16:57.620Z,101714.50
2022-09-21T13:19:29.775Z,101715.59
2022-09-21T13:22:21.575Z,101725.75
2022-09-21T13:25:01.620Z,101726.84
2022-09-21T13:28:00.564Z,101718.28
2022-09-21T13:30:35.750Z,101714.53
2022-09-21T13:33:05.219Z,101720.78
2022-09-21T13:36:10.712Z,101716.06
2022-09-21T13:39:14.419Z,101740.19
2022-09-21T13:42:03.210Z,101730.50
2022-09-21T13:44:42.602Z,101739.69
2022-09-21T13:47:11.436Z,101698.56
2022-09-21T13:49:50.957Z,101717.16
2022-09-21T13:52:35.588Z,101701.00
2022-09-21T13:55:05.603Z,101701.91
2022-09-21T13:57:38.144Z,101702.84
2022-09-21T14:00:37.859Z,101688.69
2022-09-21T14:03:08.155Z,101704.13
2022-09-21T14:05:40.696Z,101700.31
2022-09-21T14:08:28.177Z,101687.84
2022-09-21T14:10:59.147Z,101694.25
2022-09-21T14:13:31.323Z,101686.94
2022-09-21T14:16:27.605Z,101708.75
2022-09-21T14:18:55.443Z,101690.34
2022-09-21T14:21:24.085Z,101683.19
2022-09-21T14:24:27.154Z,101689.72
2022-09-21T14:27:09.725Z,101696.38
2022-09-21T14:29:45.863Z,101697.41
2022-09-21T14:32:23.529Z,101709.53
2022-09-21T14:34:56.500Z,101709.88
2022-09-21T14:37:32.584Z,101703.56
2022-09-21T14:40:05.850Z,101692.69
2022-09-21T14:42:35.031Z,101669.53
2022-09-21T14:45:04.331Z,101699.06
2022-09-21T14:47:46.252Z,101695.97
2022-09-21T14:50:32.731Z,101682.84
2022-09-21T14:53:10.049Z,101671.41
2022-09-21T14:55:56.660Z,101675.59
2022-09-21T14:58:36.051Z,101660.44
2022-09-21T15:01:22.175Z,101670.31
2022-09-21T15:04:10.538Z,101666.94
2022-09-21T15:06:59.096Z,101678.63
2022-09-21T15:10:02.652Z,101647.25
2022-09-21T15:12:38.791Z,101647.53
2022-09-21T15:15:22.099Z,101649.91
2022-09-21T15:18:03.826Z,101659.09
2022-09-21T15:20:33.312Z,101657.09
2022-09-21T15:23:02.247Z,101644.88
2022-09-21T15:25:33.399Z,101652.34
2022-09-21T15:28:04.292Z,101662.81
2022-09-21T15:30:34.424Z,101646.81
2022-09-21T15:33:03.178Z,101645.25
2022-09-21T15:35:33.238Z,101634.47
2022-09-21T15:38:28.114Z,101638.69
2022-09-21T15:41:01.426Z,101642.03
2022-09-21T15:43:34.424Z,101636.75
2022-09-21T15:46:04.578Z,101640.94
2022-09-21T15:48:39.419Z,101638.78
2022-09-21T15:51:13.068Z,101629.50
2022-09-21T15:53:45.266Z,101638.09
2022-09-21T15:56:19.389Z,101637.38
2022-09-21T15:58:53.746Z,101626.75
2022-09-21T16:01:23.772Z,101641.53
2022-09-21T16:04:05.137Z,101628.03
2022-09-21T16:06:38.435Z,101635.69
2022-09-21T16:09:42.687Z,101639.03
2022-09-21T16:12:41.710Z,101638.88
2022-09-21T16:15:17.843Z,101623.63
2022-09-21T16:18:01.586Z,101620.72
2022-09-21T16:20:41.732Z,101642.91
2022-09-21T16:23:14.828Z,101638.97
2022-09-21T16:25:47.196Z,101641.69
2022-09-21T16:28:36.316Z,101634.78
2022-09-21T16:31:25.376Z,101641.16
2022-09-21T16:34:05.791Z,101637.38
2022-09-21T16:36:43.551Z,101639.97
2022-09-21T16:39:15.568Z,101640.69
2022-09-21T16:41:47.591Z,101631.22
2022-09-21T16:44:21.046Z,101630.28
2022-09-21T16:46:53.946Z,101616.41
2022-09-21T16:49:25.747Z,101619.88
2022-09-21T16:51:55.935Z,101642.53
2022-09-21T16:54:25.170Z,101632.13
2022-09-21T16:56:55.110Z,101635.13
2022-09-21T16:59:23.058Z,101637.69
2022-09-21T17:01:57.809Z,101620.53
2022-09-21T17:04:27.234Z,101619.47
2022-09-21T17:06:56.354Z,101637.31
2022-09-21T17:09:29.907Z,101641.69
2022-09-21T17:11:59.449Z,101636.94
2022-09-21T17:14:27.211Z,101635.25
2022-09-21T17:16:58.766Z,101626.00
2022-09-21T17:19:28.068Z,101639.69
2022-09-21T17:21:55.753Z,101629.66
2022-09-21T17:24:48.795Z,101625.03
2022-09-21T17:27:12.283Z,101629.38
2022-09-21T17:29:47.234Z,101629.31
2022-09-21T17:32:20.549Z,101635.69
2022-09-21T17:34:50.498Z,101632.47
2022-09-21T17:37:18.141Z,101638.09
2022-09-21T17:39:46.239Z,101639.50
2022-09-21T17:42:17.967Z,101634.34
2022-09-21T17:45:01.585Z,101643.78
2022-09-21T17:47:33.856Z,101641.91
2022-09-21T17:50:10.035Z,101634.97
2022-09-21T17:52:55.850Z,101629.97
2022-09-21T17:55:24.190Z,101638.13
2022-09-21T18:03:44.691Z,101641.25
2022-09-21T18:06:13.847Z,101632.81
2022-09-21T18:08:42.350Z,101631.66
2022-09-21T18:11:33.143Z,101620.75
2022-09-21T18:14:08.297Z,101630.00
2022-09-21T18:16:47.416Z,101634.41
2022-09-21T18:19:30.930Z,101650.50
2022-09-21T18:22:04.696Z,101650.69
2022-09-21T18:24:32.905Z,101653.22
2022-09-21T18:27:02.227Z,101656.38
2022-09-21T18:29:41.128Z,101654.59
2022-09-21T18:32:25.690Z,101642.72
2022-09-21T18:35:13.859Z,101647.97
2022-09-21T18:37:48.635Z,101648.00
2022-09-21T18:40:22.342Z,101646.53
2022-09-21T18:42:55.879Z,101644.66
2022-09-21T18:45:28.927Z,101648.50
2022-09-21T18:48:17.474Z,101648.22
2022-09-21T18:50:50.828Z,101653.16
2022-09-21T18:53:28.121Z,101646.41
2022-09-21T18:55:57.062Z,101642.88
2022-09-21T18:58:25.455Z,101643.66
2022-09-21T19:00:53.845Z,101642.72
2022-09-21T19:03:22.233Z,101645.81
2022-09-21T19:06:13.005Z,101644.84
2022-09-21T19:08:46.254Z,101648.59
2022-09-21T19:11:22.246Z,101649.44
2022-09-21T19:13:56.076Z,101651.31
2022-09-21T19:16:29.281Z,101646.81
2022-09-21T19:19:06.662Z,101653.91
2022-09-21T19:21:41.802Z,101648.56
2022-09-21T19:24:19.831Z,101647.00
2022-09-21T19:27:03.341Z,101647.50
2022-09-21T19:29:42.835Z,101647.63
2022-09-21T19:32:17.439Z,101640.88
2022-09-21T19:34:45.945Z,101648.72
2022-09-21T19:37:15.384Z,101640.44
2022-09-21T19:39:44.524Z,101643.75
2022-09-21T19:42:21.211Z,101642.53
2022-09-21T19:44:59.153Z,101650.53
2022-09-21T19:47:30.513Z,101647.41
2022-09-21T19:50:04.108Z,101640.94
2022-09-21T19:52:36.579Z,101646.78
2022-09-21T19:55:23.152Z,101649.28
2022-09-21T19:58:09.257Z,101644.78
2022-09-21T20:00:38.427Z,101639.81
2022-09-21T20:03:14.235Z,101639.66
2022-09-21T20:05:49.378Z,101641.34
2022-09-21T20:08:26.484Z,101642.47
2022-09-21T20:11:08.062Z,101649.69
2022-09-21T20:14:07.306Z,101642.00
2022-09-21T20:16:43.744Z,101649.31
2022-09-21T20:19:19.376Z,101658.78
2022-09-21T20:21:53.286Z,101645.50
2022-09-21T20:24:32.061Z,101642.84
2022-09-21T20:27:00.324Z,101649.88
2022-09-21T20:29:28.300Z,101641.34
2022-09-21T20:31:56.510Z,101640.88
2022-09-21T20:34:24.432Z,101643.53
2022-09-21T20:36:52.306Z,101639.19
2022-09-21T20:39:20.235Z,101639.53
2022-09-21T20:41:49.765Z,101642.38
2022-09-21T20:44:17.641Z,101644.88
2022-09-21T20:46:45.179Z,101646.22
2022-09-21T20:49:15.244Z,101643.88
2022-09-21T20:51:43.040Z,101636.22
2022-09-21T20:54:11.444Z,101635.22
2022-09-21T20:56:39.499Z,101633.88
2022-09-21T20:59:09.481Z,101638.19
2022-09-21T21:01:37.261Z,101637.22
2022-09-21T21:04:05.336Z,101640.53
2022-09-21T21:06:35.147Z,101640.53
2022-09-21T21:09:02.778Z,101644.03
2022-09-21T21:11:31.486Z,101641.19
2022-09-21T21:13:59.332Z,101643.19
2022-09-21T21:16:28.448Z,101650.19
2022-09-21T21:18:56.398Z,101650.84
2022-09-21T21:21:25.555Z,101643.69
2022-09-21T21:24:10.912Z,101646.84
2022-09-21T21:27:00.671Z,101647.66
2022-09-21T21:29:26.605Z,101652.53
2022-09-21T21:32:00.186Z,101654.53
2022-09-21T21:34:28.192Z,101652.84
2022-09-21T21:36:55.970Z,101655.84
2022-09-21T21:39:23.591Z,101657.81
2022-09-21T21:41:51.261Z,101643.09
2022-09-21T21:44:18.886Z,101647.03
2022-09-21T21:46:46.489Z,101645.53
2022-09-21T21:49:16.138Z,101643.47
2022-09-21T21:51:44.752Z,101645.03
2022-09-21T21:54:13.336Z,101646.25
2022-09-21T21:56:41.607Z,101645.09
2022-09-21T21:59:11.318Z,101639.75
2022-09-21T22:01:41.535Z,101640.03
2022-09-21T22:04:09.608Z,101629.47
2022-09-21T22:06:40.308Z,101638.31
2022-09-21T22:09:10.394Z,101635.06
2022-09-21T22:11:39.148Z,101633.50
2022-09-21T22:14:08.341Z,101628.63
2022-09-21T22:16:37.866Z,101635.94
2022-09-21T22:19:07.143Z,101632.66
2022-09-21T22:21:36.253Z,101629.66
2022-09-21T22:24:07.109Z,101629.03
2022-09-21T22:26:39.135Z,101630.00
2022-09-21T22:29:08.972Z,101629.16
2022-09-21T22:31:38.819Z,101627.78
2022-09-21T22:34:07.739Z,101630.38
2022-09-21T22:36:37.006Z,101618.22
2022-09-21T22:39:07.452Z,101627.50
2022-09-21T22:41:36.848Z,101631.09
2022-09-21T22:44:04.791Z,101630.09
2022-09-21T22:46:33.370Z,101632.28
2022-09-21T22:49:01.907Z,101635.63
2022-09-21T22:51:30.222Z,101635.59
2022-09-21T22:53:58.014Z,101626.31
2022-09-21T22:56:29.121Z,101629.84
2022-09-21T22:58:58.281Z,101630.59
2022-09-21T23:01:27.723Z,101629.13
2022-09-21T23:03:58.421Z,101628.13
2022-09-21T23:06:28.111Z,101634.44
2022-09-21T23:08:59.400Z,101632.94
2022-09-21T23:11:32.104Z,101619.16
2022-09-21T23:14:01.112Z,101618.09
2022-09-21T23:16:30.254Z,101625.53
2022-09-21T23:19:00.018Z,101622.97
2022-09-21T23:21:28.867Z,101620.28
2022-09-21T23:24:00.244Z,101617.50
2022-09-21T23:26:31.328Z,101612.28
2022-09-21T23:29:00.627Z,101617.19
2022-09-21T23:31:28.742Z,101616.25
2022-09-21T23:33:58.295Z,101613.13
2022-09-21T23:36:27.691Z,101616.34
2022-09-21T23:38:55.824Z,101616.97
2022-09-21T23:41:24.907Z,101613.09
2022-09-21T23:43:54.775Z,101609.09
2022-09-21T23:46:24.734Z,101606.34
2022-09-21T23:48:52.852Z,101605.31
2022-09-21T23:51:21.156Z,101613.09
2022-09-21T23:53:48.944Z,101607.44
2022-09-21T23:56:18.488Z,101604.47
2022-09-21T23:58:46.795Z,101599.69
